Terminal Aerodrome Forecast
Issued by NWS

Home | Current Version | Previous Version | Text Only | Print | Product List | Glossary On
Versions: 1 2 3 4 5 6 7 8 9 10 11 12 13 14 15 16 17 18
648
FTUS44 KLZK 051140
TAFPBF
TAF
KPBF 051140Z 0512/0612 04005KT P6SM VCFG SCT015
      TEMPO 0512/0514 5SM BR BKN015
     FM051400 06007KT P6SM VCSH SCT020 BKN050
     FM052000 06008KT 5SM -RA BR BKN007 OVC015
     FM060200 04005KT 2SM -RA BR OVC005=

USA.gov is the U.S. government's official web portal to all federal, state and local government web resources and services.